createdAt,value
2018-01-28T00:00:32.641Z,91.18
2018-01-28T00:03:01.118Z,97.65
2018-01-28T00:05:29.573Z,104.35
2018-01-28T00:07:58.024Z,98.65
2018-01-28T00:10:26.524Z,99.68
2018-01-28T00:12:54.969Z,97.65
2018-01-28T00:15:23.444Z,94.25
2018-01-28T00:17:51.929Z,98.10
2018-01-28T00:20:20.497Z,93.68
2018-01-28T00:22:48.913Z,90.72
2018-01-28T00:25:17.356Z,91.25
2018-01-28T00:27:45.878Z,91.45
2018-01-28T00:30:14.292Z,90.30
2018-01-28T00:32:42.771Z,86.60
2018-01-28T00:35:11.229Z,90.68
2018-01-28T00:37:39.767Z,91.97
2018-01-28T00:40:08.200Z,93.15
2018-01-28T00:42:36.674Z,91.03
2018-01-28T00:45:05.126Z,93.97
2018-01-28T00:47:33.637Z,93.35
2018-01-28T00:50:02.079Z,92.37
2018-01-28T00:52:30.543Z,91.15
2018-01-28T00:54:58.960Z,92.57
2018-01-28T00:57:27.416Z,97.03
2018-01-28T00:59:55.814Z,92.35
2018-01-28T01:02:24.331Z,91.00
2018-01-28T01:04:52.857Z,89.85
2018-01-28T01:07:21.304Z,94.37
2018-01-28T01:09:49.781Z,89.87
2018-01-28T01:12:18.228Z,90.78
2018-01-28T01:14:46.644Z,91.87
2018-01-28T01:17:15.101Z,96.82
2018-01-28T01:19:43.525Z,97.90
2018-01-28T01:22:12.034Z,95.55
2018-01-28T01:24:40.545Z,96.80
2018-01-28T01:27:09.045Z,91.47
2018-01-28T01:29:37.521Z,96.80
2018-01-28T01:32:05.996Z,92.95
2018-01-28T01:34:34.498Z,95.43
2018-01-28T01:37:02.947Z,98.70
2018-01-28T01:39:31.455Z,100.78
2018-01-28T01:41:59.876Z,97.18
2018-01-28T01:44:28.405Z,95.47
2018-01-28T01:46:56.930Z,96.22
2018-01-28T01:49:35.248Z,98.45
2018-01-28T01:52:03.779Z,98.10
2018-01-28T01:54:32.257Z,100.05
2018-01-28T01:57:00.746Z,101.20
2018-01-28T01:59:29.216Z,97.15
2018-01-28T02:01:57.624Z,90.82
2018-01-28T02:04:26.071Z,96.32
2018-01-28T02:06:54.552Z,94.55
2018-01-28T02:09:23.065Z,99.10
2018-01-28T02:11:51.484Z,100.32
2018-01-28T02:14:20.019Z,99.50
2018-01-28T02:16:48.489Z,100.35
2018-01-28T02:19:16.936Z,99.13
2018-01-28T02:21:45.371Z,97.95
2018-01-28T02:24:13.820Z,98.37
2018-01-28T02:26:42.381Z,105.75
2018-01-28T02:29:10.875Z,99.55
2018-01-28T02:31:39.331Z,92.57
2018-01-28T02:34:07.833Z,96.63
2018-01-28T02:36:36.280Z,95.43
2018-01-28T02:39:04.822Z,90.87
2018-01-28T02:41:33.258Z,98.10
2018-01-28T02:44:01.709Z,96.80
2018-01-28T02:46:30.129Z,94.20
2018-01-28T02:48:58.612Z,98.35
2018-01-28T02:51:27.090Z,93.75
2018-01-28T02:53:55.569Z,94.53
2018-01-28T02:56:24.015Z,96.50
2018-01-28T02:58:52.425Z,92.62
2018-01-28T03:01:20.868Z,94.85
2018-01-28T03:03:49.285Z,92.85
2018-01-28T03:06:17.752Z,91.25
2018-01-28T03:08:46.168Z,92.75
2018-01-28T03:11:14.612Z,89.97
2018-01-28T03:13:43.076Z,89.55
2018-01-28T03:16:11.557Z,89.87
2018-01-28T03:18:40.041Z,90.60
2018-01-28T03:21:08.461Z,87.62
2018-01-28T03:23:36.876Z,87.55
2018-01-28T03:26:05.361Z,88.57
2018-01-28T03:28:33.860Z,87.45
2018-01-28T03:31:03.068Z,87.53
2018-01-28T03:33:31.591Z,92.55
2018-01-28T03:36:00.061Z,84.97
2018-01-28T03:38:28.544Z,84.30
2018-01-28T03:40:57.811Z,87.10
2018-01-28T03:43:26.267Z,85.72
2018-01-28T03:45:54.708Z,88.00
2018-01-28T03:48:23.268Z,87.80
2018-01-28T03:50:51.668Z,86.00
2018-01-28T03:53:20.126Z,88.80
2018-01-28T03:55:48.542Z,85.93
2018-01-28T03:58:16.989Z,85.30
2018-01-28T04:00:45.489Z,86.85
2018-01-28T04:03:13.902Z,87.45
2018-01-28T04:05:42.352Z,82.55
2018-01-28T04:08:10.782Z,87.43
2018-01-28T04:10:39.219Z,83.30
2018-01-28T04:13:07.674Z,89.05
2018-01-28T04:15:36.136Z,88.70
2018-01-28T04:18:04.552Z,86.15
2018-01-28T04:20:32.991Z,88.35
2018-01-28T04:23:01.435Z,86.32
2018-01-28T04:25:29.848Z,86.25
2018-01-28T04:27:58.293Z,89.55
2018-01-28T04:30:26.760Z,84.53
2018-01-28T04:32:55.230Z,87.53
2018-01-28T04:35:23.746Z,86.00
2018-01-28T04:37:52.254Z,80.60
2018-01-28T04:40:20.696Z,82.32
2018-01-28T04:42:49.172Z,84.55
2018-01-28T04:45:17.663Z,86.87
2018-01-28T04:47:46.169Z,86.93
2018-01-28T04:50:14.584Z,83.28
2018-01-28T04:52:43.029Z,83.82
2018-01-28T04:55:11.473Z,81.22
2018-01-28T04:57:39.897Z,84.62
2018-01-28T05:00:08.364Z,90.05
2018-01-28T05:02:36.865Z,83.90
2018-01-28T05:05:05.354Z,88.12
2018-01-28T05:07:33.891Z,86.95
2018-01-28T05:10:02.316Z,83.05
2018-01-28T05:12:30.820Z,89.22
2018-01-28T05:14:59.232Z,85.82
2018-01-28T05:17:27.665Z,86.03
2018-01-28T05:19:56.167Z,85.93
2018-01-28T05:22:25.177Z,88.55
2018-01-28T05:24:53.678Z,84.25
2018-01-28T05:27:22.179Z,89.57
2018-01-28T05:29:50.593Z,89.22
2018-01-28T05:32:19.037Z,84.28
2018-01-28T05:34:47.484Z,83.93
2018-01-28T05:37:15.950Z,84.55
2018-01-28T05:39:44.352Z,83.00
2018-01-28T05:42:12.863Z,83.57
2018-01-28T05:44:41.369Z,84.25
2018-01-28T05:47:09.793Z,82.75
2018-01-28T05:49:38.296Z,86.03
2018-01-28T05:52:06.811Z,85.78
2018-01-28T05:54:35.313Z,83.50
2018-01-28T05:57:03.789Z,86.18
2018-01-28T05:59:32.238Z,84.20
2018-01-28T06:02:01.553Z,85.03
2018-01-28T06:04:30.034Z,82.12
2018-01-28T06:06:58.531Z,84.47
2018-01-28T06:09:26.980Z,85.03
2018-01-28T06:11:55.445Z,84.30
2018-01-28T06:14:23.961Z,86.03
2018-01-28T06:16:52.368Z,90.30
2018-01-28T06:19:20.878Z,86.85
2018-01-28T06:21:49.288Z,87.30
2018-01-28T06:24:17.743Z,85.30
2018-01-28T06:26:46.237Z,86.07
2018-01-28T06:29:14.693Z,88.28
2018-01-28T06:31:43.169Z,89.15
2018-01-28T06:34:11.633Z,90.85
2018-01-28T06:36:40.109Z,89.35
2018-01-28T06:39:08.573Z,91.07
2018-01-28T06:41:37.000Z,84.15
2018-01-28T06:44:05.469Z,87.00
2018-01-28T06:46:33.907Z,85.03
2018-01-28T06:49:02.365Z,86.45
2018-01-28T06:51:30.878Z,85.72
2018-01-28T06:53:59.337Z,89.20
2018-01-28T06:56:27.783Z,91.78
2018-01-28T06:58:56.255Z,94.13
2018-01-28T07:01:24.729Z,94.35
2018-01-28T07:03:53.187Z,94.70
2018-01-28T07:06:21.605Z,93.45
2018-01-28T07:08:50.042Z,86.20
2018-01-28T07:11:18.487Z,83.75
2018-01-28T07:13:47.086Z,80.45
2018-01-28T07:16:15.498Z,86.80
2018-01-28T07:18:43.953Z,84.85
2018-01-28T07:21:12.402Z,88.57
2018-01-28T07:23:40.845Z,90.30
2018-01-28T07:26:09.258Z,94.53
2018-01-28T07:28:37.654Z,95.40
2018-01-28T07:31:06.089Z,96.33
2018-01-28T07:33:34.553Z,97.87
2018-01-28T07:36:03.002Z,98.07
2018-01-28T07:38:31.416Z,98.03
2018-01-28T07:40:59.853Z,95.20
2018-01-28T07:43:28.296Z,101.73
2018-01-28T07:45:56.760Z,101.40
2018-01-28T07:48:25.168Z,101.47
2018-01-28T07:50:53.621Z,96.03
2018-01-28T07:53:22.171Z,98.33
2018-01-28T07:55:50.624Z,95.03
2018-01-28T07:58:19.107Z,89.40
2018-01-28T08:00:47.627Z,86.67
2018-01-28T08:03:16.064Z,91.57
2018-01-28T08:05:44.461Z,88.47
2018-01-28T08:08:12.916Z,95.33
2018-01-28T08:10:48.624Z,92.73
2018-01-28T08:13:22.534Z,94.17
2018-01-28T08:15:50.997Z,93.17
2018-01-28T08:18:19.461Z,89.80
2018-01-28T08:20:47.937Z,93.60
2018-01-28T08:23:16.421Z,90.07
2018-01-28T08:25:44.884Z,91.17
2018-01-28T08:28:13.393Z,86.70
2018-01-28T08:30:41.853Z,76.80
2018-01-28T08:33:10.368Z,86.47
2018-01-28T08:35:38.834Z,78.27
2018-01-28T08:38:07.244Z,87.67
2018-01-28T08:40:35.721Z,87.30
2018-01-28T08:43:04.209Z,89.63
2018-01-28T08:45:32.649Z,88.93
2018-01-28T08:48:01.991Z,84.87
2018-01-28T08:50:30.533Z,80.07
2018-01-28T08:52:59.005Z,81.50
2018-01-28T08:55:28.596Z,83.00
2018-01-28T08:57:57.097Z,79.07
2018-01-28T09:00:25.500Z,102.07
2018-01-28T09:02:53.946Z,99.30
2018-01-28T09:05:22.854Z,101.10
2018-01-28T09:07:51.301Z,104.37
2018-01-28T09:10:19.748Z,105.97
2018-01-28T09:12:48.242Z,103.20
2018-01-28T09:15:16.762Z,101.23
2018-01-28T09:17:45.201Z,104.33
2018-01-28T09:20:13.673Z,103.20
2018-01-28T09:22:42.138Z,102.83
2018-01-28T09:25:10.632Z,104.47
2018-01-28T09:27:39.078Z,97.40
2018-01-28T09:30:07.489Z,100.23
2018-01-28T09:32:36.000Z,96.47
2018-01-28T09:35:04.418Z,99.07
2018-01-28T09:37:32.918Z,97.33
2018-01-28T09:40:01.372Z,94.07
2018-01-28T09:42:29.847Z,93.33
2018-01-28T09:44:58.293Z,90.53
2018-01-28T09:47:26.790Z,82.83
2018-01-28T09:49:55.214Z,87.00
2018-01-28T09:52:23.612Z,87.50
2018-01-28T09:54:52.119Z,86.50
2018-01-28T09:57:20.594Z,90.30
2018-01-28T09:59:49.085Z,91.20
2018-01-28T10:02:17.524Z,86.47
2018-01-28T10:04:45.955Z,84.83
2018-01-28T10:07:14.393Z,87.43
2018-01-28T10:09:42.853Z,80.50
2018-01-28T10:12:11.340Z,78.13
2018-01-28T10:14:39.737Z,75.40
2018-01-28T10:17:08.164Z,77.87
2018-01-28T10:19:36.684Z,75.03
2018-01-28T10:22:05.138Z,68.40
2018-01-28T10:24:33.558Z,72.03
2018-01-28T10:27:02.012Z,66.23
2018-01-28T10:29:30.457Z,64.70
2018-01-28T10:31:58.892Z,66.60
2018-01-28T10:34:27.284Z,63.97
2018-01-28T10:36:55.762Z,66.47
2018-01-28T10:39:24.145Z,68.60
2018-01-28T10:41:52.600Z,66.97
2018-01-28T10:44:21.060Z,58.50
2018-01-28T10:46:49.502Z,59.30
2018-01-28T10:49:17.990Z,60.53
2018-01-28T10:51:46.389Z,59.80
2018-01-28T10:54:14.882Z,46.93
2018-01-28T10:56:43.277Z,46.90
2018-01-28T10:59:11.670Z,50.00
2018-01-28T11:01:40.169Z,47.40
2018-01-28T11:04:08.571Z,52.77
2018-01-28T11:06:36.989Z,55.10
2018-01-28T11:09:05.513Z,57.13
2018-01-28T11:11:33.962Z,58.97
2018-01-28T11:14:02.460Z,61.80
2018-01-28T11:16:30.901Z,58.37
2018-01-28T11:18:59.389Z,58.20
2018-01-28T11:21:27.844Z,60.13
2018-01-28T11:23:56.249Z,63.10
2018-01-28T11:26:24.733Z,61.83
2018-01-28T11:28:53.235Z,62.23
2018-01-28T11:31:21.636Z,62.27
2018-01-28T11:33:50.025Z,63.77
2018-01-28T11:36:18.519Z,62.07
2018-01-28T11:38:46.998Z,62.10
2018-01-28T11:41:15.424Z,61.80
2018-01-28T11:43:43.821Z,61.03
2018-01-28T11:46:12.244Z,61.70
2018-01-28T11:48:40.632Z,65.50
2018-01-28T11:51:09.076Z,67.13
2018-01-28T11:53:37.454Z,66.30
2018-01-28T11:56:05.838Z,67.57
2018-01-28T11:58:34.291Z,70.33
2018-01-28T12:01:02.709Z,67.67
2018-01-28T12:03:31.153Z,69.60
2018-01-28T12:05:59.549Z,67.90
2018-01-28T12:08:27.981Z,66.77
2018-01-28T12:10:56.377Z,67.47
2018-01-28T12:13:24.873Z,64.77
2018-01-28T12:15:53.264Z,66.43
2018-01-28T12:18:21.762Z,65.33
2018-01-28T12:20:50.197Z,66.13
2018-01-28T12:23:18.575Z,65.43
2018-01-28T12:25:47.022Z,66.97
2018-01-28T12:28:15.429Z,65.73
2018-01-28T12:30:43.860Z,61.57
2018-01-28T12:33:12.281Z,60.40
2018-01-28T12:35:40.779Z,63.00
2018-01-28T12:38:09.222Z,56.37
2018-01-28T12:40:37.663Z,56.13
2018-01-28T12:43:06.088Z,57.07
2018-01-28T12:45:34.605Z,55.13
2018-01-28T12:48:02.986Z,55.73
2018-01-28T12:50:31.404Z,55.33
2018-01-28T12:52:59.881Z,54.03
2018-01-28T12:55:28.368Z,56.30
2018-01-28T12:57:56.793Z,51.80
2018-01-28T13:00:25.171Z,57.50
2018-01-28T13:02:53.655Z,56.50
2018-01-28T13:05:22.085Z,58.10
2018-01-28T13:07:50.521Z,57.27
2018-01-28T13:10:18.961Z,57.43
2018-01-28T13:12:47.410Z,56.83
2018-01-28T13:15:15.866Z,56.00
2018-01-28T13:17:44.312Z,56.03
2018-01-28T13:20:12.732Z,56.10
2018-01-28T13:22:41.129Z,56.53
2018-01-28T13:25:09.630Z,57.73
2018-01-28T13:27:38.035Z,57.27
2018-01-28T13:30:06.568Z,59.60
2018-01-28T13:32:35.026Z,59.40
2018-01-28T13:35:03.520Z,60.80
2018-01-28T13:37:31.988Z,58.60
2018-01-28T13:40:00.491Z,55.73
2018-01-28T13:42:28.965Z,53.63
2018-01-28T13:44:57.424Z,52.93
2018-01-28T13:47:25.870Z,55.23
2018-01-28T13:49:54.257Z,54.27
2018-01-28T13:52:22.745Z,54.87
2018-01-28T13:54:51.206Z,53.07
2018-01-28T13:57:19.637Z,49.93
2018-01-28T13:59:48.092Z,48.40
2018-01-28T14:02:16.532Z,49.03
2018-01-28T14:04:44.953Z,49.73
2018-01-28T14:07:13.384Z,47.87
2018-01-28T14:09:41.816Z,49.77
2018-01-28T14:12:10.262Z,48.63
2018-01-28T14:14:38.863Z,47.90
2018-01-28T14:17:07.316Z,50.90
2018-01-28T14:19:35.715Z,50.60
2018-01-28T14:22:04.129Z,51.73
2018-01-28T14:24:32.566Z,49.77
2018-01-28T14:27:00.998Z,49.57
2018-01-28T14:29:29.513Z,52.57
2018-01-28T14:31:57.973Z,53.13
2018-01-28T14:34:26.469Z,50.03
2018-01-28T14:36:54.869Z,54.50
2018-01-28T14:39:23.308Z,60.27
2018-01-28T14:41:51.701Z,60.33
2018-01-28T14:44:20.175Z,58.83
2018-01-28T14:46:48.623Z,63.57
2018-01-28T14:49:17.040Z,60.63
2018-01-28T14:51:45.507Z,61.87
2018-01-28T14:54:13.973Z,63.23
2018-01-28T14:56:42.485Z,60.43
2018-01-28T14:59:10.935Z,60.73
2018-01-28T15:01:39.399Z,60.23
2018-01-28T15:04:07.788Z,61.37
2018-01-28T15:06:36.216Z,62.73
2018-01-28T15:09:04.669Z,62.57
2018-01-28T15:11:33.157Z,64.57
2018-01-28T15:14:01.567Z,62.60
2018-01-28T15:16:30.066Z,63.53
2018-01-28T15:18:58.557Z,62.23
2018-01-28T15:21:26.962Z,64.67
2018-01-28T15:23:55.397Z,63.97
2018-01-28T15:26:23.853Z,62.20
2018-01-28T15:28:52.305Z,64.73
2018-01-28T15:31:20.697Z,66.53
2018-01-28T15:33:49.158Z,68.97
2018-01-28T15:36:17.557Z,75.40
2018-01-28T15:38:46.053Z,70.03
2018-01-28T15:41:14.481Z,68.33
2018-01-28T15:43:42.996Z,67.47
2018-01-28T15:46:11.456Z,67.73
2018-01-28T15:48:39.891Z,67.10
2018-01-28T15:51:08.355Z,69.70
2018-01-28T15:53:36.820Z,69.00
2018-01-28T15:56:05.309Z,72.43
2018-01-28T15:58:33.717Z,72.13
2018-01-28T16:01:02.149Z,69.07
2018-01-28T16:03:30.580Z,69.03
2018-01-28T16:05:58.993Z,68.83
2018-01-28T16:08:27.421Z,68.90
2018-01-28T16:10:55.821Z,69.50
2018-01-28T16:13:24.254Z,67.03
2018-01-28T16:15:52.782Z,71.30
2018-01-28T16:18:21.285Z,67.03
2018-01-28T16:20:49.677Z,71.50
2018-01-28T16:23:18.117Z,69.33
2018-01-28T16:25:46.541Z,70.47
2018-01-28T16:28:14.969Z,66.73
2018-01-28T16:30:43.492Z,65.53
2018-01-28T16:33:11.901Z,66.90
2018-01-28T16:35:40.457Z,70.07
2018-01-28T16:38:08.893Z,68.20
2018-01-28T16:40:37.341Z,67.00
2018-01-28T16:43:05.769Z,66.60
2018-01-28T16:45:34.241Z,69.27
2018-01-28T16:48:02.693Z,68.93
2018-01-28T16:50:31.201Z,69.83
2018-01-28T16:52:59.697Z,71.13
2018-01-28T16:55:28.144Z,70.07
2018-01-28T16:57:56.643Z,69.40
2018-01-28T17:00:25.114Z,73.00
2018-01-28T17:02:53.613Z,69.73
2018-01-28T17:05:22.053Z,70.27
2018-01-28T17:07:50.498Z,70.53
2018-01-28T17:10:18.941Z,73.03
2018-01-28T17:12:47.347Z,75.10
2018-01-28T17:15:15.770Z,73.33
2018-01-28T17:17:44.187Z,74.00
2018-01-28T17:20:12.628Z,77.50
2018-01-28T17:22:41.103Z,78.70
2018-01-28T17:25:09.561Z,72.50
2018-01-28T17:27:38.045Z,75.93
2018-01-28T17:30:06.480Z,83.27
2018-01-28T17:32:34.870Z,79.83
2018-01-28T17:35:03.329Z,80.93
2018-01-28T17:37:31.741Z,90.17
2018-01-28T17:40:00.201Z,90.03
2018-01-28T17:42:28.645Z,88.13
2018-01-28T17:44:57.101Z,86.87
2018-01-28T17:47:25.545Z,92.13
2018-01-28T17:49:53.944Z,94.00
2018-01-28T17:52:22.384Z,99.93
2018-01-28T17:54:50.885Z,98.83
2018-01-28T17:57:19.359Z,96.17
2018-01-28T17:59:47.870Z,95.93
2018-01-28T18:02:16.273Z,100.47
2018-01-28T18:04:44.777Z,95.60
2018-01-28T18:07:13.181Z,99.97
2018-01-28T18:09:41.618Z,95.43
2018-01-28T18:12:10.018Z,106.67
2018-01-28T18:14:38.486Z,109.87
2018-01-28T18:17:06.913Z,104.27
2018-01-28T18:19:35.417Z,109.80
2018-01-28T18:22:03.858Z,109.53
2018-01-28T18:24:32.332Z,108.03
2018-01-28T18:27:00.740Z,108.67
2018-01-28T18:29:29.145Z,124.27
2018-01-28T18:31:57.589Z,124.03
2018-01-28T18:34:25.993Z,146.73
2018-01-28T18:36:54.436Z,196.50
2018-01-28T18:39:22.873Z,203.60
2018-01-28T18:41:51.326Z,195.13
2018-01-28T18:44:19.724Z,178.50
2018-01-28T18:46:48.140Z,205.63
2018-01-28T18:49:16.616Z,182.17
2018-01-28T18:51:45.017Z,170.33
2018-01-28T18:54:13.517Z,163.73
2018-01-28T18:56:41.935Z,156.27
2018-01-28T18:59:10.376Z,153.33
2018-01-28T19:01:38.853Z,161.97
2018-01-28T19:04:07.257Z,157.83
2018-01-28T19:06:35.729Z,161.07
2018-01-28T19:09:04.217Z,158.90
2018-01-28T19:11:32.641Z,161.53
2018-01-28T19:14:01.048Z,159.97
2018-01-28T19:16:29.565Z,164.43
2018-01-28T19:18:57.972Z,157.53
2018-01-28T19:21:26.434Z,156.73
2018-01-28T19:23:54.876Z,154.40
2018-01-28T19:26:23.277Z,155.23
2018-01-28T19:28:51.724Z,160.13
2018-01-28T19:31:20.130Z,163.00
2018-01-28T19:33:48.594Z,151.17
2018-01-28T19:36:16.982Z,153.17
2018-01-28T19:38:45.397Z,150.07
2018-01-28T19:41:13.893Z,148.70
2018-01-28T19:43:42.320Z,151.93
2018-01-28T19:46:10.770Z,148.80
2018-01-28T19:48:39.236Z,150.87
2018-01-28T19:51:07.646Z,147.87
2018-01-28T19:53:36.146Z,143.37
2018-01-28T19:56:04.595Z,145.30
2018-01-28T19:58:33.028Z,147.80
2018-01-28T20:01:01.497Z,152.93
2018-01-28T20:03:29.931Z,153.43
2018-01-28T20:05:58.437Z,155.90
2018-01-28T20:08:26.884Z,170.90
2018-01-28T20:10:55.389Z,161.03
2018-01-28T20:13:23.869Z,172.97
2018-01-28T20:15:52.284Z,170.67
2018-01-28T20:18:20.725Z,164.53
2018-01-28T20:20:49.182Z,166.50
2018-01-28T20:23:17.644Z,156.80
2018-01-28T20:25:46.117Z,148.47
2018-01-28T20:28:14.542Z,145.70
2018-01-28T20:30:42.985Z,139.90
2018-01-28T20:33:11.397Z,132.40
2018-01-28T20:35:39.832Z,137.13
2018-01-28T20:38:08.293Z,133.37
2018-01-28T20:40:36.721Z,129.90
2018-01-28T20:43:05.232Z,124.73
2018-01-28T20:45:33.628Z,125.43
2018-01-28T20:48:02.089Z,124.70
2018-01-28T20:50:30.544Z,125.27
2018-01-28T20:52:58.958Z,132.43
2018-01-28T20:55:27.364Z,134.03
2018-01-28T20:57:55.804Z,137.90
2018-01-28T21:00:24.265Z,140.43
2018-01-28T21:02:52.705Z,135.33
2018-01-28T21:05:21.223Z,136.93
2018-01-28T21:07:49.668Z,138.50
2018-01-28T21:10:18.129Z,145.50
2018-01-28T21:12:46.532Z,144.17
2018-01-28T21:15:14.987Z,143.87
2018-01-28T21:17:43.453Z,138.80
2018-01-28T21:20:11.893Z,140.57
2018-01-28T21:22:40.304Z,137.17
2018-01-28T21:25:08.808Z,144.33
2018-01-28T21:27:37.253Z,164.83
2018-01-28T21:30:05.750Z,163.10
2018-01-28T21:32:34.225Z,155.50
2018-01-28T21:35:02.675Z,153.30
2018-01-28T21:37:31.117Z,150.30
2018-01-28T21:39:59.623Z,147.00
2018-01-28T21:42:28.029Z,146.97
2018-01-28T21:44:56.479Z,145.43
2018-01-28T21:47:24.915Z,147.50
2018-01-28T21:49:53.424Z,151.33
2018-01-28T21:52:21.830Z,147.63
2018-01-28T21:54:50.269Z,140.97
2018-01-28T21:57:18.726Z,145.10
2018-01-28T21:59:47.198Z,142.43
2018-01-28T22:02:15.656Z,143.97
2018-01-28T22:04:44.077Z,138.73
2018-01-28T22:07:12.540Z,141.27
2018-01-28T22:09:41.069Z,142.50
2018-01-28T22:12:09.496Z,148.80
2018-01-28T22:14:37.949Z,148.07
2018-01-28T22:17:06.353Z,158.53
2018-01-28T22:19:34.817Z,155.97
2018-01-28T22:22:03.220Z,149.80
2018-01-28T22:24:31.705Z,147.17
2018-01-28T22:27:00.174Z,150.97
2018-01-28T22:29:28.637Z,152.53
2018-01-28T22:31:57.080Z,145.83
2018-01-28T22:34:25.544Z,148.37
2018-01-28T22:36:54.005Z,144.93
2018-01-28T22:39:22.485Z,147.10
2018-01-28T22:41:50.943Z,150.93
2018-01-28T22:44:19.424Z,147.80
2018-01-28T22:46:47.946Z,145.27
2018-01-28T22:49:16.353Z,147.30
2018-01-28T22:51:44.803Z,143.73
2018-01-28T22:54:13.228Z,145.53
2018-01-28T22:56:42.734Z,144.83
2018-01-28T22:59:11.157Z,145.13
2018-01-28T23:01:39.572Z,139.10
2018-01-28T23:04:08.051Z,144.07
2018-01-28T23:06:36.493Z,141.02
2018-01-28T23:09:04.945Z,140.30
2018-01-28T23:11:33.397Z,136.80
2018-01-28T23:14:01.808Z,138.87
2018-01-28T23:16:30.326Z,144.13
2018-01-28T23:18:58.773Z,138.48
2018-01-28T23:21:27.275Z,137.43
2018-01-28T23:23:55.688Z,139.00
2018-01-28T23:26:24.096Z,138.93
2018-01-28T23:28:52.634Z,139.00
2018-01-28T23:31:21.059Z,139.27
2018-01-28T23:33:49.469Z,139.90
2018-01-28T23:36:17.904Z,139.70
2018-01-28T23:38:46.373Z,139.63
2018-01-28T23:41:14.781Z,142.00
2018-01-28T23:43:43.225Z,139.27
2018-01-28T23:46:11.740Z,139.97
2018-01-28T23:48:40.148Z,139.53
2018-01-28T23:51:08.609Z,141.77
2018-01-28T23:53:37.073Z,141.53
2018-01-28T23:56:05.566Z,134.90
2018-01-28T23:58:34.005Z,140.37
